sensor_id;sensor_type;location;lat;lon;timestamp;P1;durP1;ratioP1;P2;durP2;ratioP2
17197;SDS011;8715;51.010;6.812;2023-04-20T00:01:40;883.27;;;824.53;;
17197;SDS011;8715;51.010;6.812;2023-04-20T00:04:06;881.33;;;823.30;;
17197;SDS011;8715;51.010;6.812;2023-04-20T00:06:31;886.90;;;828.22;;
17197;SDS011;8715;51.010;6.812;2023-04-20T00:08:58;881.45;;;823.33;;
17197;SDS011;8715;51.010;6.812;2023-04-20T00:11:23;879.17;;;820.97;;
17197;SDS011;8715;51.010;6.812;2023-04-20T00:13:48;894.90;;;835.77;;
17197;SDS011;8715;51.010;6.812;2023-04-20T00:16:13;884.23;;;826.00;;
17197;SDS011;8715;51.010;6.812;2023-04-20T00:18:38;879.97;;;821.87;;
17197;SDS011;8715;51.010;6.812;2023-04-20T00:21:04;887.97;;;829.53;;
17197;SDS011;8715;51.010;6.812;2023-04-20T00:23:29;881.53;;;823.17;;
17197;SDS011;8715;51.010;6.812;2023-04-20T00:25:55;882.17;;;823.60;;
17197;SDS011;8715;51.010;6.812;2023-04-20T00:28:20;882.83;;;824.03;;
17197;SDS011;8715;51.010;6.812;2023-04-20T00:30:45;881.63;;;823.27;;
17197;SDS011;8715;51.010;6.812;2023-04-20T00:33:10;881.05;;;823.22;;
17197;SDS011;8715;51.010;6.812;2023-04-20T00:35:35;879.00;;;820.93;;
17197;SDS011;8715;51.010;6.812;2023-04-20T00:38:01;896.00;;;836.67;;
17197;SDS011;8715;51.010;6.812;2023-04-20T00:40:26;882.40;;;823.90;;
17197;SDS011;8715;51.010;6.812;2023-04-20T00:42:51;877.93;;;819.80;;
17197;SDS011;8715;51.010;6.812;2023-04-20T00:45:16;878.33;;;820.10;;
17197;SDS011;8715;51.010;6.812;2023-04-20T00:47:41;879.90;;;821.33;;
17197;SDS011;8715;51.010;6.812;2023-04-20T00:50:07;876.83;;;818.93;;
17197;SDS011;8715;51.010;6.812;2023-04-20T00:52:32;887.55;;;828.28;;
17197;SDS011;8715;51.010;6.812;2023-04-20T00:54:58;880.40;;;822.50;;
17197;SDS011;8715;51.010;6.812;2023-04-20T00:57:23;900.72;;;840.70;;
17197;SDS011;8715;51.010;6.812;2023-04-20T00:59:49;883.42;;;824.88;;
17197;SDS011;8715;51.010;6.812;2023-04-20T01:02:17;883.60;;;824.60;;
17197;SDS011;8715;51.010;6.812;2023-04-20T01:04:44;882.67;;;824.27;;
17197;SDS011;8715;51.010;6.812;2023-04-20T01:07:09;884.42;;;825.65;;
17197;SDS011;8715;51.010;6.812;2023-04-20T01:09:36;894.10;;;834.90;;
17197;SDS011;8715;51.010;6.812;2023-04-20T01:12:02;884.40;;;825.70;;
17197;SDS011;8715;51.010;6.812;2023-04-20T01:14:27;895.53;;;836.03;;
17197;SDS011;8715;51.010;6.812;2023-04-20T01:16:52;880.90;;;821.93;;
17197;SDS011;8715;51.010;6.812;2023-04-20T01:19:17;894.30;;;834.87;;
17197;SDS011;8715;51.010;6.812;2023-04-20T01:21:42;879.00;;;820.90;;
17197;SDS011;8715;51.010;6.812;2023-04-20T01:24:08;879.80;;;821.17;;
17197;SDS011;8715;51.010;6.812;2023-04-20T01:26:33;887.03;;;828.33;;
17197;SDS011;8715;51.010;6.812;2023-04-20T01:28:58;882.33;;;823.77;;
17197;SDS011;8715;51.010;6.812;2023-04-20T01:31:23;893.20;;;834.33;;
17197;SDS011;8715;51.010;6.812;2023-04-20T01:33:48;878.57;;;820.77;;
17197;SDS011;8715;51.010;6.812;2023-04-20T01:36:14;880.17;;;822.05;;
17197;SDS011;8715;51.010;6.812;2023-04-20T01:38:39;892.30;;;834.07;;
17197;SDS011;8715;51.010;6.812;2023-04-20T01:41:06;879.92;;;822.00;;
17197;SDS011;8715;51.010;6.812;2023-04-20T01:43:32;875.67;;;818.42;;
17197;SDS011;8715;51.010;6.812;2023-04-20T01:45:58;876.88;;;819.25;;
17197;SDS011;8715;51.010;6.812;2023-04-20T01:48:24;893.05;;;834.30;;
17197;SDS011;8715;51.010;6.812;2023-04-20T01:50:52;877.27;;;819.80;;
17197;SDS011;8715;51.010;6.812;2023-04-20T01:53:17;882.42;;;824.38;;
17197;SDS011;8715;51.010;6.812;2023-04-20T01:55:43;885.05;;;827.00;;
17197;SDS011;8715;51.010;6.812;2023-04-20T01:58:08;886.27;;;828.57;;
17197;SDS011;8715;51.010;6.812;2023-04-20T02:00:33;870.37;;;813.77;;
17197;SDS011;8715;51.010;6.812;2023-04-20T02:02:58;874.93;;;817.77;;
17197;SDS011;8715;51.010;6.812;2023-04-20T02:05:24;892.22;;;833.80;;
17197;SDS011;8715;51.010;6.812;2023-04-20T02:07:49;876.03;;;818.53;;
17197;SDS011;8715;51.010;6.812;2023-04-20T02:10:15;877.13;;;819.88;;
17197;SDS011;8715;51.010;6.812;2023-04-20T02:12:40;878.63;;;821.17;;
17197;SDS011;8715;51.010;6.812;2023-04-20T02:15:05;877.67;;;819.80;;
17197;SDS011;8715;51.010;6.812;2023-04-20T02:17:31;894.85;;;835.80;;
17197;SDS011;8715;51.010;6.812;2023-04-20T02:19:56;892.03;;;833.25;;
17197;SDS011;8715;51.010;6.812;2023-04-20T02:22:22;889.53;;;831.37;;
17197;SDS011;8715;51.010;6.812;2023-04-20T02:24:47;879.67;;;821.57;;
17197;SDS011;8715;51.010;6.812;2023-04-20T02:27:12;881.00;;;822.67;;
17197;SDS011;8715;51.010;6.812;2023-04-20T02:29:37;876.53;;;819.03;;
17197;SDS011;8715;51.010;6.812;2023-04-20T02:32:03;892.00;;;833.80;;
17197;SDS011;8715;51.010;6.812;2023-04-20T02:34:28;878.35;;;821.10;;
17197;SDS011;8715;51.010;6.812;2023-04-20T02:36:53;871.47;;;814.47;;
17197;SDS011;8715;51.010;6.812;2023-04-20T02:39:18;871.17;;;813.87;;
17197;SDS011;8715;51.010;6.812;2023-04-20T02:41:44;874.10;;;817.10;;
17197;SDS011;8715;51.010;6.812;2023-04-20T02:44:09;888.03;;;829.90;;
17197;SDS011;8715;51.010;6.812;2023-04-20T02:46:34;882.93;;;825.60;;
17197;SDS011;8715;51.010;6.812;2023-04-20T02:49:00;885.53;;;828.13;;
17197;SDS011;8715;51.010;6.812;2023-04-20T02:51:25;873.47;;;816.78;;
17197;SDS011;8715;51.010;6.812;2023-04-20T02:53:50;870.90;;;814.30;;
17197;SDS011;8715;51.010;6.812;2023-04-20T02:56:16;872.53;;;815.90;;
17197;SDS011;8715;51.010;6.812;2023-04-20T02:58:41;883.67;;;826.63;;
17197;SDS011;8715;51.010;6.812;2023-04-20T03:01:06;877.17;;;819.70;;
17197;SDS011;8715;51.010;6.812;2023-04-20T03:03:31;873.53;;;816.70;;
17197;SDS011;8715;51.010;6.812;2023-04-20T03:05:57;868.23;;;812.00;;
17197;SDS011;8715;51.010;6.812;2023-04-20T03:08:22;871.83;;;815.13;;
17197;SDS011;8715;51.010;6.812;2023-04-20T03:10:47;872.73;;;816.00;;
17197;SDS011;8715;51.010;6.812;2023-04-20T03:13:12;872.80;;;816.43;;
17197;SDS011;8715;51.010;6.812;2023-04-20T03:15:38;873.80;;;817.03;;
17197;SDS011;8715;51.010;6.812;2023-04-20T03:18:03;872.70;;;815.90;;
17197;SDS011;8715;51.010;6.812;2023-04-20T03:20:28;870.07;;;814.00;;
17197;SDS011;8715;51.010;6.812;2023-04-20T03:22:54;871.65;;;815.53;;
17197;SDS011;8715;51.010;6.812;2023-04-20T03:25:19;873.85;;;816.95;;
17197;SDS011;8715;51.010;6.812;2023-04-20T03:27:45;869.13;;;812.97;;
17197;SDS011;8715;51.010;6.812;2023-04-20T03:30:10;873.20;;;816.58;;
17197;SDS011;8715;51.010;6.812;2023-04-20T03:32:35;873.30;;;816.45;;
17197;SDS011;8715;51.010;6.812;2023-04-20T03:35:02;871.05;;;815.15;;
17197;SDS011;8715;51.010;6.812;2023-04-20T03:37:27;877.88;;;820.30;;
17197;SDS011;8715;51.010;6.812;2023-04-20T03:39:52;870.03;;;813.97;;
17197;SDS011;8715;51.010;6.812;2023-04-20T03:42:18;871.80;;;815.20;;
17197;SDS011;8715;51.010;6.812;2023-04-20T03:44:43;871.20;;;815.22;;
17197;SDS011;8715;51.010;6.812;2023-04-20T03:47:08;864.53;;;808.93;;
17197;SDS011;8715;51.010;6.812;2023-04-20T03:49:34;874.38;;;817.88;;
17197;SDS011;8715;51.010;6.812;2023-04-20T03:52:00;876.60;;;819.58;;
17197;SDS011;8715;51.010;6.812;2023-04-20T03:54:25;893.43;;;835.43;;
17197;SDS011;8715;51.010;6.812;2023-04-20T03:56:50;873.22;;;816.38;;
17197;SDS011;8715;51.010;6.812;2023-04-20T03:59:15;871.63;;;814.97;;
17197;SDS011;8715;51.010;6.812;2023-04-20T04:01:41;869.03;;;812.63;;
17197;SDS011;8715;51.010;6.812;2023-04-20T04:04:08;874.28;;;817.78;;
17197;SDS011;8715;51.010;6.812;2023-04-20T04:06:33;877.75;;;820.83;;
17197;SDS011;8715;51.010;6.812;2023-04-20T04:08:58;869.70;;;813.87;;
17197;SDS011;8715;51.010;6.812;2023-04-20T04:11:23;872.40;;;815.97;;
17197;SDS011;8715;51.010;6.812;2023-04-20T04:13:49;870.35;;;814.17;;
17197;SDS011;8715;51.010;6.812;2023-04-20T04:16:15;872.30;;;815.70;;
17197;SDS011;8715;51.010;6.812;2023-04-20T04:18:43;886.83;;;829.53;;
17197;SDS011;8715;51.010;6.812;2023-04-20T04:21:08;867.92;;;811.58;;
17197;SDS011;8715;51.010;6.812;2023-04-20T04:23:34;886.00;;;828.72;;
17197;SDS011;8715;51.010;6.812;2023-04-20T04:25:59;887.03;;;829.50;;
17197;SDS011;8715;51.010;6.812;2023-04-20T04:28:25;875.17;;;818.20;;
17197;SDS011;8715;51.010;6.812;2023-04-20T04:30:51;864.57;;;808.50;;
17197;SDS011;8715;51.010;6.812;2023-04-20T04:33:16;882.87;;;826.00;;
17197;SDS011;8715;51.010;6.812;2023-04-20T04:35:42;872.85;;;816.55;;
17197;SDS011;8715;51.010;6.812;2023-04-20T04:38:08;867.23;;;811.30;;
17197;SDS011;8715;51.010;6.812;2023-04-20T04:40:33;866.30;;;810.50;;
17197;SDS011;8715;51.010;6.812;2023-04-20T04:42:58;869.90;;;813.90;;
17197;SDS011;8715;51.010;6.812;2023-04-20T04:45:24;868.78;;;812.88;;
17197;SDS011;8715;51.010;6.812;2023-04-20T04:47:50;869.40;;;813.53;;
17197;SDS011;8715;51.010;6.812;2023-04-20T04:50:17;875.40;;;818.65;;
17197;SDS011;8715;51.010;6.812;2023-04-20T04:52:43;881.60;;;824.83;;
17197;SDS011;8715;51.010;6.812;2023-04-20T04:55:09;873.53;;;817.03;;
17197;SDS011;8715;51.010;6.812;2023-04-20T04:57:34;875.50;;;819.00;;
17197;SDS011;8715;51.010;6.812;2023-04-20T05:00:00;869.65;;;813.40;;
17197;SDS011;8715;51.010;6.812;2023-04-20T05:02:25;871.93;;;815.57;;
17197;SDS011;8715;51.010;6.812;2023-04-20T05:04:50;876.23;;;818.93;;
17197;SDS011;8715;51.010;6.812;2023-04-20T05:07:16;891.70;;;833.47;;
17197;SDS011;8715;51.010;6.812;2023-04-20T05:09:41;867.90;;;811.80;;
17197;SDS011;8715;51.010;6.812;2023-04-20T05:12:06;893.43;;;835.43;;
17197;SDS011;8715;51.010;6.812;2023-04-20T05:14:32;874.77;;;817.87;;
17197;SDS011;8715;51.010;6.812;2023-04-20T05:16:57;867.97;;;811.85;;
17197;SDS011;8715;51.010;6.812;2023-04-20T05:19:23;886.65;;;829.55;;
17197;SDS011;8715;51.010;6.812;2023-04-20T05:21:48;868.63;;;812.80;;
17197;SDS011;8715;51.010;6.812;2023-04-20T05:24:13;868.13;;;812.70;;
17197;SDS011;8715;51.010;6.812;2023-04-20T05:26:38;874.60;;;817.63;;
17197;SDS011;8715;51.010;6.812;2023-04-20T05:29:04;866.93;;;810.40;;
17197;SDS011;8715;51.010;6.812;2023-04-20T05:31:29;870.37;;;813.77;;
17197;SDS011;8715;51.010;6.812;2023-04-20T05:33:57;879.63;;;822.90;;
17197;SDS011;8715;51.010;6.812;2023-04-20T05:36:23;862.35;;;807.42;;
17197;SDS011;8715;51.010;6.812;2023-04-20T05:38:48;870.23;;;814.70;;
17197;SDS011;8715;51.010;6.812;2023-04-20T05:41:13;876.67;;;820.40;;
17197;SDS011;8715;51.010;6.812;2023-04-20T05:43:38;859.13;;;804.63;;
17197;SDS011;8715;51.010;6.812;2023-04-20T05:46:04;861.73;;;807.07;;
17197;SDS011;8715;51.010;6.812;2023-04-20T05:48:29;865.33;;;810.22;;
17197;SDS011;8715;51.010;6.812;2023-04-20T05:50:55;863.25;;;808.35;;
17197;SDS011;8715;51.010;6.812;2023-04-20T05:53:20;866.95;;;812.17;;
17197;SDS011;8715;51.010;6.812;2023-04-20T05:55:46;855.53;;;801.42;;
17197;SDS011;8715;51.010;6.812;2023-04-20T05:58:11;859.13;;;804.77;;
17197;SDS011;8715;51.010;6.812;2023-04-20T06:00:36;857.07;;;803.20;;
17197;SDS011;8715;51.010;6.812;2023-04-20T06:03:02;858.50;;;804.17;;
17197;SDS011;8715;51.010;6.812;2023-04-20T06:05:27;868.78;;;812.90;;
17197;SDS011;8715;51.010;6.812;2023-04-20T06:07:52;868.37;;;812.37;;
17197;SDS011;8715;51.010;6.812;2023-04-20T06:10:17;865.60;;;810.23;;
17197;SDS011;8715;51.010;6.812;2023-04-20T06:12:42;867.20;;;811.80;;
17197;SDS011;8715;51.010;6.812;2023-04-20T06:15:08;862.10;;;806.47;;
17197;SDS011;8715;51.010;6.812;2023-04-20T06:17:35;878.28;;;821.83;;
17197;SDS011;8715;51.010;6.812;2023-04-20T06:20:01;871.85;;;815.03;;
17197;SDS011;8715;51.010;6.812;2023-04-20T06:22:26;870.83;;;814.38;;
17197;SDS011;8715;51.010;6.812;2023-04-20T06:24:51;877.93;;;821.23;;
17197;SDS011;8715;51.010;6.812;2023-04-20T06:27:17;870.60;;;813.67;;
17197;SDS011;8715;51.010;6.812;2023-04-20T06:29:42;879.38;;;821.55;;
17197;SDS011;8715;51.010;6.812;2023-04-20T06:32:08;867.70;;;810.83;;
17197;SDS011;8715;51.010;6.812;2023-04-20T06:34:33;893.73;;;835.13;;
17197;SDS011;8715;51.010;6.812;2023-04-20T06:36:58;874.97;;;817.37;;
17197;SDS011;8715;51.010;6.812;2023-04-20T06:39:23;876.70;;;819.20;;
17197;SDS011;8715;51.010;6.812;2023-04-20T06:41:49;875.37;;;817.10;;
17197;SDS011;8715;51.010;6.812;2023-04-20T06:44:14;877.97;;;819.80;;
17197;SDS011;8715;51.010;6.812;2023-04-20T06:46:40;880.40;;;822.30;;
17197;SDS011;8715;51.010;6.812;2023-04-20T06:49:05;870.63;;;813.03;;
17197;SDS011;8715;51.010;6.812;2023-04-20T06:51:30;881.42;;;823.08;;
17197;SDS011;8715;51.010;6.812;2023-04-20T06:53:56;882.17;;;824.65;;
17197;SDS011;8715;51.010;6.812;2023-04-20T06:56:21;882.67;;;824.40;;
17197;SDS011;8715;51.010;6.812;2023-04-20T06:58:46;882.20;;;823.87;;
17197;SDS011;8715;51.010;6.812;2023-04-20T07:01:12;878.38;;;820.67;;
17197;SDS011;8715;51.010;6.812;2023-04-20T07:03:37;876.67;;;818.90;;
17197;SDS011;8715;51.010;6.812;2023-04-20T07:06:02;874.10;;;816.50;;
17197;SDS011;8715;51.010;6.812;2023-04-20T07:08:28;889.45;;;831.00;;
17197;SDS011;8715;51.010;6.812;2023-04-20T07:10:53;870.97;;;814.27;;
17197;SDS011;8715;51.010;6.812;2023-04-20T07:13:18;872.00;;;815.03;;
17197;SDS011;8715;51.010;6.812;2023-04-20T07:15:43;870.97;;;814.47;;
17197;SDS011;8715;51.010;6.812;2023-04-20T07:18:09;889.55;;;831.95;;
17197;SDS011;8715;51.010;6.812;2023-04-20T07:20:34;870.60;;;814.42;;
17197;SDS011;8715;51.010;6.812;2023-04-20T07:22:59;877.10;;;820.33;;
17197;SDS011;8715;51.010;6.812;2023-04-20T07:25:24;860.80;;;805.87;;
17197;SDS011;8715;51.010;6.812;2023-04-20T07:27:50;856.67;;;801.97;;
17197;SDS011;8715;51.010;6.812;2023-04-20T07:30:15;862.53;;;807.17;;
17197;SDS011;8715;51.010;6.812;2023-04-20T07:32:40;872.10;;;816.13;;
17197;SDS011;8715;51.010;6.812;2023-04-20T07:35:06;873.80;;;817.87;;
17197;SDS011;8715;51.010;6.812;2023-04-20T07:37:31;873.83;;;817.00;;
17197;SDS011;8715;51.010;6.812;2023-04-20T07:39:56;892.50;;;835.00;;
17197;SDS011;8715;51.010;6.812;2023-04-20T07:42:22;867.90;;;811.93;;
17197;SDS011;8715;51.010;6.812;2023-04-20T07:44:47;879.05;;;822.13;;
17197;SDS011;8715;51.010;6.812;2023-04-20T07:47:13;869.65;;;813.28;;
17197;SDS011;8715;51.010;6.812;2023-04-20T07:49:39;873.70;;;817.10;;
17197;SDS011;8715;51.010;6.812;2023-04-20T07:52:05;866.90;;;811.13;;
17197;SDS011;8715;51.010;6.812;2023-04-20T07:54:30;869.17;;;813.00;;
17197;SDS011;8715;51.010;6.812;2023-04-20T07:56:56;862.55;;;806.90;;
17197;SDS011;8715;51.010;6.812;2023-04-20T07:59:21;872.40;;;815.57;;
17197;SDS011;8715;51.010;6.812;2023-04-20T08:01:47;869.97;;;812.97;;
17197;SDS011;8715;51.010;6.812;2023-04-20T08:04:12;872.83;;;816.37;;
17197;SDS011;8715;51.010;6.812;2023-04-20T08:06:37;867.90;;;811.40;;
17197;SDS011;8715;51.010;6.812;2023-04-20T08:09:02;871.63;;;814.87;;
17197;SDS011;8715;51.010;6.812;2023-04-20T08:11:27;886.70;;;829.07;;
17197;SDS011;8715;51.010;6.812;2023-04-20T08:13:53;881.97;;;824.47;;
17197;SDS011;8715;51.010;6.812;2023-04-20T08:16:18;892.53;;;833.73;;
17197;SDS011;8715;51.010;6.812;2023-04-20T08:18:43;869.43;;;812.73;;
17197;SDS011;8715;51.010;6.812;2023-04-20T08:21:08;894.83;;;836.13;;
17197;SDS011;8715;51.010;6.812;2023-04-20T08:23:33;887.73;;;829.87;;
17197;SDS011;8715;51.010;6.812;2023-04-20T08:25:59;877.83;;;819.53;;
17197;SDS011;8715;51.010;6.812;2023-04-20T08:28:24;882.00;;;823.53;;
17197;SDS011;8715;51.010;6.812;2023-04-20T08:30:49;872.20;;;815.00;;
17197;SDS011;8715;51.010;6.812;2023-04-20T08:33:15;876.63;;;818.63;;
17197;SDS011;8715;51.010;6.812;2023-04-20T08:35:41;884.72;;;826.17;;
17197;SDS011;8715;51.010;6.812;2023-04-20T08:38:06;877.67;;;819.03;;
17197;SDS011;8715;51.010;6.812;2023-04-20T08:40:32;883.73;;;825.07;;
17197;SDS011;8715;51.010;6.812;2023-04-20T08:42:57;882.40;;;823.63;;
17197;SDS011;8715;51.010;6.812;2023-04-20T08:45:25;881.17;;;822.45;;
17197;SDS011;8715;51.010;6.812;2023-04-20T08:47:51;881.42;;;823.45;;
17197;SDS011;8715;51.010;6.812;2023-04-20T08:50:16;878.42;;;820.45;;
17197;SDS011;8715;51.010;6.812;2023-04-20T08:52:43;891.97;;;833.22;;
17197;SDS011;8715;51.010;6.812;2023-04-20T08:55:08;892.33;;;833.03;;
17197;SDS011;8715;51.010;6.812;2023-04-20T08:57:33;881.47;;;822.87;;
17197;SDS011;8715;51.010;6.812;2023-04-20T08:59:58;881.37;;;822.70;;
17197;SDS011;8715;51.010;6.812;2023-04-20T09:02:23;880.07;;;821.73;;
17197;SDS011;8715;51.010;6.812;2023-04-20T09:04:49;877.67;;;819.43;;
17197;SDS011;8715;51.010;6.812;2023-04-20T09:07:24;878.03;;;819.75;;
17197;SDS011;8715;51.010;6.812;2023-04-20T09:09:53;884.77;;;825.67;;
17197;SDS011;8715;51.010;6.812;2023-04-20T09:12:19;879.50;;;820.83;;
17197;SDS011;8715;51.010;6.812;2023-04-20T09:14:45;878.80;;;819.97;;
17197;SDS011;8715;51.010;6.812;2023-04-20T09:17:12;885.85;;;826.88;;
17197;SDS011;8715;51.010;6.812;2023-04-20T09:19:38;898.22;;;838.33;;
17197;SDS011;8715;51.010;6.812;2023-04-20T09:22:03;886.35;;;826.63;;
17197;SDS011;8715;51.010;6.812;2023-04-20T09:24:31;887.38;;;827.72;;
17197;SDS011;8715;51.010;6.812;2023-04-20T09:26:57;887.63;;;827.75;;
17197;SDS011;8715;51.010;6.812;2023-04-20T09:29:22;889.37;;;829.47;;
17197;SDS011;8715;51.010;6.812;2023-04-20T09:31:49;888.50;;;828.38;;
17197;SDS011;8715;51.010;6.812;2023-04-20T09:34:15;888.63;;;828.20;;
17197;SDS011;8715;51.010;6.812;2023-04-20T09:36:44;891.27;;;829.80;;
17197;SDS011;8715;51.010;6.812;2023-04-20T09:39:14;891.17;;;829.63;;
17197;SDS011;8715;51.010;6.812;2023-04-20T09:41:40;896.53;;;834.58;;
17197;SDS011;8715;51.010;6.812;2023-04-20T09:44:06;912.85;;;849.40;;
17197;SDS011;8715;51.010;6.812;2023-04-20T09:46:33;899.63;;;836.20;;
17197;SDS011;8715;51.010;6.812;2023-04-20T09:48:59;903.83;;;839.25;;
17197;SDS011;8715;51.010;6.812;2023-04-20T09:51:27;905.38;;;841.22;;
17197;SDS011;8715;51.010;6.812;2023-04-20T09:53:54;906.97;;;842.13;;
17197;SDS011;8715;51.010;6.812;2023-04-20T09:56:19;903.63;;;839.30;;
17197;SDS011;8715;51.010;6.812;2023-04-20T09:58:45;909.28;;;845.25;;
17197;SDS011;8715;51.010;6.812;2023-04-20T10:01:11;921.13;;;856.90;;
17197;SDS011;8715;51.010;6.812;2023-04-20T10:03:36;897.37;;;834.97;;
17197;SDS011;8715;51.010;6.812;2023-04-20T10:06:01;893.77;;;831.80;;
17197;SDS011;8715;51.010;6.812;2023-04-20T10:08:26;891.63;;;831.07;;
17197;SDS011;8715;51.010;6.812;2023-04-20T10:10:52;898.47;;;837.73;;
17197;SDS011;8715;51.010;6.812;2023-04-20T10:13:17;895.27;;;835.87;;
17197;SDS011;8715;51.010;6.812;2023-04-20T10:15:47;889.80;;;831.35;;
17197;SDS011;8715;51.010;6.812;2023-04-20T10:18:18;877.60;;;819.30;;
17197;SDS011;8715;51.010;6.812;2023-04-20T10:20:44;876.00;;;818.60;;
17197;SDS011;8715;51.010;6.812;2023-04-20T10:23:10;872.05;;;814.75;;
17197;SDS011;8715;51.010;6.812;2023-04-20T10:25:35;878.25;;;819.95;;
17197;SDS011;8715;51.010;6.812;2023-04-20T10:28:01;882.45;;;824.60;;
17197;SDS011;8715;51.010;6.812;2023-04-20T10:30:29;894.60;;;835.75;;
17197;SDS011;8715;51.010;6.812;2023-04-20T10:33:01;879.55;;;821.63;;
17197;SDS011;8715;51.010;6.812;2023-04-20T10:35:27;886.72;;;827.50;;
17197;SDS011;8715;51.010;6.812;2023-04-20T10:37:52;882.87;;;823.67;;
17197;SDS011;8715;51.010;6.812;2023-04-20T10:40:24;888.53;;;828.53;;
17197;SDS011;8715;51.010;6.812;2023-04-20T10:42:50;899.15;;;837.03;;
17197;SDS011;8715;51.010;6.812;2023-04-20T10:45:16;905.43;;;842.67;;
17197;SDS011;8715;51.010;6.812;2023-04-20T10:47:41;905.57;;;841.80;;
17197;SDS011;8715;51.010;6.812;2023-04-20T10:50:07;907.70;;;843.33;;
17197;SDS011;8715;51.010;6.812;2023-04-20T10:52:33;909.10;;;844.30;;
17197;SDS011;8715;51.010;6.812;2023-04-20T10:55:00;912.30;;;846.70;;
17197;SDS011;8715;51.010;6.812;2023-04-20T10:57:25;932.27;;;864.57;;
17197;SDS011;8715;51.010;6.812;2023-04-20T10:59:50;916.13;;;849.53;;
17197;SDS011;8715;51.010;6.812;2023-04-20T11:02:15;912.17;;;845.87;;
17197;SDS011;8715;51.010;6.812;2023-04-20T11:04:40;910.63;;;844.93;;
17197;SDS011;8715;51.010;6.812;2023-04-20T11:07:06;908.33;;;843.70;;
17197;SDS011;8715;51.010;6.812;2023-04-20T11:09:32;918.20;;;853.60;;
17197;SDS011;8715;51.010;6.812;2023-04-20T11:12:08;908.28;;;844.25;;
17197;SDS011;8715;51.010;6.812;2023-04-20T11:14:36;897.78;;;835.03;;
17197;SDS011;8715;51.010;6.812;2023-04-20T11:17:02;914.53;;;851.42;;
17197;SDS011;8715;51.010;6.812;2023-04-20T11:19:29;918.70;;;854.90;;
17197;SDS011;8715;51.010;6.812;2023-04-20T11:21:55;900.13;;;837.22;;
17197;SDS011;8715;51.010;6.812;2023-04-20T11:24:21;905.80;;;842.67;;
17197;SDS011;8715;51.010;6.812;2023-04-20T11:26:47;918.30;;;854.28;;
17197;SDS011;8715;51.010;6.812;2023-04-20T11:29:33;907.13;;;843.53;;
17197;SDS011;8715;51.010;6.812;2023-04-20T11:31:59;902.55;;;839.63;;
17197;SDS011;8715;51.010;6.812;2023-04-20T11:34:24;904.95;;;840.80;;
17197;SDS011;8715;51.010;6.812;2023-04-20T11:36:50;904.15;;;840.47;;
17197;SDS011;8715;51.010;6.812;2023-04-20T11:39:22;912.55;;;847.75;;
17197;SDS011;8715;51.010;6.812;2023-04-20T11:41:48;911.13;;;845.40;;
17197;SDS011;8715;51.010;6.812;2023-04-20T11:44:13;925.30;;;858.43;;
17197;SDS011;8715;51.010;6.812;2023-04-20T11:46:39;915.15;;;848.28;;
17197;SDS011;8715;51.010;6.812;2023-04-20T11:49:04;918.03;;;851.05;;
17197;SDS011;8715;51.010;6.812;2023-04-20T11:51:30;917.73;;;850.83;;
17197;SDS011;8715;51.010;6.812;2023-04-20T11:53:56;909.22;;;844.33;;
17197;SDS011;8715;51.010;6.812;2023-04-20T11:56:21;905.83;;;841.03;;
17197;SDS011;8715;51.010;6.812;2023-04-20T11:58:46;899.90;;;836.80;;
17197;SDS011;8715;51.010;6.812;2023-04-20T12:01:11;902.10;;;838.30;;
17197;SDS011;8715;51.010;6.812;2023-04-20T12:03:37;904.40;;;840.70;;
17197;SDS011;8715;51.010;6.812;2023-04-20T12:06:02;914.43;;;851.40;;
17197;SDS011;8715;51.010;6.812;2023-04-20T12:08:27;907.57;;;843.67;;
17197;SDS011;8715;51.010;6.812;2023-04-20T12:10:52;902.90;;;839.03;;
17197;SDS011;8715;51.010;6.812;2023-04-20T12:13:18;916.45;;;852.30;;
17197;SDS011;8715;51.010;6.812;2023-04-20T12:15:43;901.37;;;837.90;;
17197;SDS011;8715;51.010;6.812;2023-04-20T12:18:08;901.10;;;837.03;;
17197;SDS011;8715;51.010;6.812;2023-04-20T12:20:34;917.60;;;851.72;;
17197;SDS011;8715;51.010;6.812;2023-04-20T12:23:00;913.53;;;847.00;;
17197;SDS011;8715;51.010;6.812;2023-04-20T12:25:26;930.38;;;862.65;;
17197;SDS011;8715;51.010;6.812;2023-04-20T12:27:51;918.57;;;850.97;;
17197;SDS011;8715;51.010;6.812;2023-04-20T12:30:16;914.63;;;846.93;;
17197;SDS011;8715;51.010;6.812;2023-04-20T12:32:42;940.83;;;871.08;;
17197;SDS011;8715;51.010;6.812;2023-04-20T12:35:07;921.97;;;852.50;;
17197;SDS011;8715;51.010;6.812;2023-04-20T12:37:32;928.80;;;858.07;;
17197;SDS011;8715;51.010;6.812;2023-04-20T12:39:57;925.50;;;855.07;;
17197;SDS011;8715;51.010;6.812;2023-04-20T12:42:23;933.07;;;861.63;;
17197;SDS011;8715;51.010;6.812;2023-04-20T12:44:48;930.37;;;858.80;;
17197;SDS011;8715;51.010;6.812;2023-04-20T12:47:16;929.33;;;858.10;;
17197;SDS011;8715;51.010;6.812;2023-04-20T12:49:41;930.03;;;858.77;;
17197;SDS011;8715;51.010;6.812;2023-04-20T12:52:06;927.70;;;857.00;;
17197;SDS011;8715;51.010;6.812;2023-04-20T12:54:32;934.77;;;863.37;;
17197;SDS011;8715;51.010;6.812;2023-04-20T12:56:57;933.75;;;861.63;;
17197;SDS011;8715;51.010;6.812;2023-04-20T12:59:22;931.17;;;859.77;;
17197;SDS011;8715;51.010;6.812;2023-04-20T13:01:47;928.53;;;857.27;;
17197;SDS011;8715;51.010;6.812;2023-04-20T13:04:13;945.60;;;873.70;;
17197;SDS011;8715;51.010;6.812;2023-04-20T13:06:39;925.88;;;855.25;;
17197;SDS011;8715;51.010;6.812;2023-04-20T13:09:05;938.70;;;868.30;;
17197;SDS011;8715;51.010;6.812;2023-04-20T13:11:30;922.72;;;853.88;;
17197;SDS011;8715;51.010;6.812;2023-04-20T13:13:56;920.73;;;851.93;;
17197;SDS011;8715;51.010;6.812;2023-04-20T13:16:22;935.67;;;866.05;;
17197;SDS011;8715;51.010;6.812;2023-04-20T13:18:47;925.25;;;855.92;;
17197;SDS011;8715;51.010;6.812;2023-04-20T13:21:12;934.90;;;865.17;;
17197;SDS011;8715;51.010;6.812;2023-04-20T13:23:37;925.93;;;855.77;;
17197;SDS011;8715;51.010;6.812;2023-04-20T13:26:04;930.58;;;859.33;;
17197;SDS011;8715;51.010;6.812;2023-04-20T13:28:29;935.50;;;863.67;;
17197;SDS011;8715;51.010;6.812;2023-04-20T13:30:55;935.17;;;863.30;;
17197;SDS011;8715;51.010;6.812;2023-04-20T13:33:21;936.53;;;864.25;;
17197;SDS011;8715;51.010;6.812;2023-04-20T13:35:46;933.05;;;861.08;;
17197;SDS011;8715;51.010;6.812;2023-04-20T13:38:12;929.23;;;858.73;;
17197;SDS011;8715;51.010;6.812;2023-04-20T13:40:37;928.40;;;858.00;;
17197;SDS011;8715;51.010;6.812;2023-04-20T13:43:02;922.80;;;853.43;;
17197;SDS011;8715;51.010;6.812;2023-04-20T13:45:28;918.42;;;850.22;;
17197;SDS011;8715;51.010;6.812;2023-04-20T13:47:53;921.13;;;852.75;;
17197;SDS011;8715;51.010;6.812;2023-04-20T13:50:19;917.40;;;849.45;;
17197;SDS011;8715;51.010;6.812;2023-04-20T13:52:44;918.63;;;850.47;;
17197;SDS011;8715;51.010;6.812;2023-04-20T13:55:09;926.73;;;857.80;;
17197;SDS011;8715;51.010;6.812;2023-04-20T13:57:35;926.95;;;857.30;;
17197;SDS011;8715;51.010;6.812;2023-04-20T14:00:00;934.00;;;864.50;;